sensor_id;sensor_type;location;lat;lon;timestamp;temperature;humidity
60473;DHT22;46318;52.716;6.444;2023-06-22T00:00:56;20.10;80.40
60473;DHT22;46318;52.716;6.444;2023-06-22T00:03:23;20.00;80.40
60473;DHT22;46318;52.716;6.444;2023-06-22T00:05:50;20.00;80.60
60473;DHT22;46318;52.716;6.444;2023-06-22T00:08:18;20.00;80.70
60473;DHT22;46318;52.716;6.444;2023-06-22T00:10:44;20.00;80.80
60473;DHT22;46318;52.716;6.444;2023-06-22T00:13:11;19.90;81.00
60473;DHT22;46318;52.716;6.444;2023-06-22T00:15:40;19.90;80.90
60473;DHT22;46318;52.716;6.444;2023-06-22T00:18:10;20.00;80.90
60473;DHT22;46318;52.716;6.444;2023-06-22T00:20:37;19.90;81.00
60473;DHT22;46318;52.716;6.444;2023-06-22T00:23:05;19.90;81.10
60473;DHT22;46318;52.716;6.444;2023-06-22T00:25:35;19.90;81.00
60473;DHT22;46318;52.716;6.444;2023-06-22T00:28:03;19.90;81.20
60473;DHT22;46318;52.716;6.444;2023-06-22T00:30:30;19.90;81.20
60473;DHT22;46318;52.716;6.444;2023-06-22T00:32:57;19.90;81.10
60473;DHT22;46318;52.716;6.444;2023-06-22T00:35:24;19.90;81.10
60473;DHT22;46318;52.716;6.444;2023-06-22T00:37:57;20.00;81.00
60473;DHT22;46318;52.716;6.444;2023-06-22T00:40:29;20.00;80.80
60473;DHT22;46318;52.716;6.444;2023-06-22T00:42:58;20.00;80.80
60473;DHT22;46318;52.716;6.444;2023-06-22T00:45:25;20.00;80.70
60473;DHT22;46318;52.716;6.444;2023-06-22T00:47:58;20.00;80.70
60473;DHT22;46318;52.716;6.444;2023-06-22T00:50:27;20.00;80.80
60473;DHT22;46318;52.716;6.444;2023-06-22T00:52:59;20.00;80.80
60473;DHT22;46318;52.716;6.444;2023-06-22T00:55:37;20.00;80.60
60473;DHT22;46318;52.716;6.444;2023-06-22T00:58:08;20.00;80.40
60473;DHT22;46318;52.716;6.444;2023-06-22T01:00:36;19.90;80.70
60473;DHT22;46318;52.716;6.444;2023-06-22T01:03:03;19.90;80.70
60473;DHT22;46318;52.716;6.444;2023-06-22T01:05:29;19.90;80.70
60473;DHT22;46318;52.716;6.444;2023-06-22T01:10:43;19.90;80.50
60473;DHT22;46318;52.716;6.444;2023-06-22T01:13:46;19.80;81.00
60473;DHT22;46318;52.716;6.444;2023-06-22T01:16:18;19.80;81.30
60473;DHT22;46318;52.716;6.444;2023-06-22T01:18:52;19.70;81.30
60473;DHT22;46318;52.716;6.444;2023-06-22T01:21:22;19.70;81.50
60473;DHT22;46318;52.716;6.444;2023-06-22T01:29:55;19.60;81.60
60473;DHT22;46318;52.716;6.444;2023-06-22T01:32:34;19.50;81.50
60473;DHT22;46318;52.716;6.444;2023-06-22T01:35:01;19.50;81.50
60473;DHT22;46318;52.716;6.444;2023-06-22T01:37:30;19.50;81.60
60473;DHT22;46318;52.716;6.444;2023-06-22T01:39:58;19.50;81.50
60473;DHT22;46318;52.716;6.444;2023-06-22T01:42:25;19.50;81.70
60473;DHT22;46318;52.716;6.444;2023-06-22T01:44:54;19.40;81.80
60473;DHT22;46318;52.716;6.444;2023-06-22T01:47:22;19.40;81.90
60473;DHT22;46318;52.716;6.444;2023-06-22T01:49:49;19.40;82.00
60473;DHT22;46318;52.716;6.444;2023-06-22T01:52:17;19.40;81.90
60473;DHT22;46318;52.716;6.444;2023-06-22T01:54:43;19.30;82.20
60473;DHT22;46318;52.716;6.444;2023-06-22T01:57:10;19.30;82.30
60473;DHT22;46318;52.716;6.444;2023-06-22T02:00:00;19.30;82.40
60473;DHT22;46318;52.716;6.444;2023-06-22T02:02:41;19.30;82.90
60473;DHT22;46318;52.716;6.444;2023-06-22T02:05:10;19.20;82.80
60473;DHT22;46318;52.716;6.444;2023-06-22T02:07:47;19.10;82.90
60473;DHT22;46318;52.716;6.444;2023-06-22T02:10:20;19.10;83.30
60473;DHT22;46318;52.716;6.444;2023-06-22T02:12:48;19.10;83.40
60473;DHT22;46318;52.716;6.444;2023-06-22T02:15:14;19.00;83.60
60473;DHT22;46318;52.716;6.444;2023-06-22T02:17:42;19.00;83.80
60473;DHT22;46318;52.716;6.444;2023-06-22T02:20:13;19.00;83.90
60473;DHT22;46318;52.716;6.444;2023-06-22T02:22:40;19.00;84.10
60473;DHT22;46318;52.716;6.444;2023-06-22T02:25:06;19.00;83.90
60473;DHT22;46318;52.716;6.444;2023-06-22T02:27:35;18.90;84.00
60473;DHT22;46318;52.716;6.444;2023-06-22T02:30:01;18.90;84.10
60473;DHT22;46318;52.716;6.444;2023-06-22T02:32:27;18.90;84.10
60473;DHT22;46318;52.716;6.444;2023-06-22T02:34:53;18.90;84.10
60473;DHT22;46318;52.716;6.444;2023-06-22T02:37:19;18.90;83.80
60473;DHT22;46318;52.716;6.444;2023-06-22T02:39:45;18.90;83.80
60473;DHT22;46318;52.716;6.444;2023-06-22T02:42:10;18.90;83.80
60473;DHT22;46318;52.716;6.444;2023-06-22T02:44:37;18.90;83.80
60473;DHT22;46318;52.716;6.444;2023-06-22T02:47:03;18.80;83.80
60473;DHT22;46318;52.716;6.444;2023-06-22T02:49:30;18.80;83.80
60473;DHT22;46318;52.716;6.444;2023-06-22T02:51:56;18.80;83.80
60473;DHT22;46318;52.716;6.444;2023-06-22T02:54:23;18.80;83.90
60473;DHT22;46318;52.716;6.444;2023-06-22T02:56:48;18.70;83.90
60473;DHT22;46318;52.716;6.444;2023-06-22T02:59:16;18.70;83.90
60473;DHT22;46318;52.716;6.444;2023-06-22T03:01:42;18.70;83.90
60473;DHT22;46318;52.716;6.444;2023-06-22T03:04:14;18.70;83.80
60473;DHT22;46318;52.716;6.444;2023-06-22T03:06:40;18.60;83.90
60473;DHT22;46318;52.716;6.444;2023-06-22T03:09:07;18.60;83.90
60473;DHT22;46318;52.716;6.444;2023-06-22T03:11:33;18.60;83.90
60473;DHT22;46318;52.716;6.444;2023-06-22T03:14:00;18.50;84.00
60473;DHT22;46318;52.716;6.444;2023-06-22T03:16:27;18.50;84.20
60473;DHT22;46318;52.716;6.444;2023-06-22T03:18:53;18.50;84.30
60473;DHT22;46318;52.716;6.444;2023-06-22T03:21:19;18.50;84.20
60473;DHT22;46318;52.716;6.444;2023-06-22T03:23:47;18.40;84.30
60473;DHT22;46318;52.716;6.444;2023-06-22T03:26:17;18.40;84.30
60473;DHT22;46318;52.716;6.444;2023-06-22T03:28:43;18.40;84.30
60473;DHT22;46318;52.716;6.444;2023-06-22T03:31:09;18.40;84.20
60473;DHT22;46318;52.716;6.444;2023-06-22T03:33:35;18.40;84.40
60473;DHT22;46318;52.716;6.444;2023-06-22T03:36:01;18.30;84.50
60473;DHT22;46318;52.716;6.444;2023-06-22T03:38:27;18.30;84.60
60473;DHT22;46318;52.716;6.444;2023-06-22T03:40:53;18.30;84.80
60473;DHT22;46318;52.716;6.444;2023-06-22T03:43:19;18.30;85.00
60473;DHT22;46318;52.716;6.444;2023-06-22T03:45:44;18.30;84.90
60473;DHT22;46318;52.716;6.444;2023-06-22T03:48:11;18.30;85.00
60473;DHT22;46318;52.716;6.444;2023-06-22T03:50:37;18.30;84.90
60473;DHT22;46318;52.716;6.444;2023-06-22T03:53:04;18.30;84.90
60473;DHT22;46318;52.716;6.444;2023-06-22T03:55:30;18.20;85.10
60473;DHT22;46318;52.716;6.444;2023-06-22T03:57:55;18.20;85.10
60473;DHT22;46318;52.716;6.444;2023-06-22T04:00:23;18.20;85.10
60473;DHT22;46318;52.716;6.444;2023-06-22T04:02:49;18.20;85.30
60473;DHT22;46318;52.716;6.444;2023-06-22T04:05:15;18.20;85.40
60473;DHT22;46318;52.716;6.444;2023-06-22T04:07:46;18.20;85.60
60473;DHT22;46318;52.716;6.444;2023-06-22T04:10:12;18.20;85.70
60473;DHT22;46318;52.716;6.444;2023-06-22T04:12:38;18.20;85.50
60473;DHT22;46318;52.716;6.444;2023-06-22T04:15:04;18.20;85.70
60473;DHT22;46318;52.716;6.444;2023-06-22T04:17:31;18.20;85.60
60473;DHT22;46318;52.716;6.444;2023-06-22T04:19:57;18.20;85.70
60473;DHT22;46318;52.716;6.444;2023-06-22T04:22:22;18.20;85.70
60473;DHT22;46318;52.716;6.444;2023-06-22T04:24:48;18.20;86.00
60473;DHT22;46318;52.716;6.444;2023-06-22T04:27:18;18.20;86.20
60473;DHT22;46318;52.716;6.444;2023-06-22T04:29:45;18.20;86.30
60473;DHT22;46318;52.716;6.444;2023-06-22T04:32:15;18.20;86.30
60473;DHT22;46318;52.716;6.444;2023-06-22T04:34:44;18.20;86.30
60473;DHT22;46318;52.716;6.444;2023-06-22T04:37:10;18.20;86.60
60473;DHT22;46318;52.716;6.444;2023-06-22T04:39:41;18.20;86.40
60473;DHT22;46318;52.716;6.444;2023-06-22T04:42:08;18.20;86.60
60473;DHT22;46318;52.716;6.444;2023-06-22T04:44:34;18.30;86.70
60473;DHT22;46318;52.716;6.444;2023-06-22T04:47:02;18.30;86.70
60473;DHT22;46318;52.716;6.444;2023-06-22T04:49:34;18.30;86.70
60473;DHT22;46318;52.716;6.444;2023-06-22T04:54:33;18.40;86.80
60473;DHT22;46318;52.716;6.444;2023-06-22T04:57:01;18.40;86.80
60473;DHT22;46318;52.716;6.444;2023-06-22T04:59:28;18.50;86.90
60473;DHT22;46318;52.716;6.444;2023-06-22T05:02:00;18.50;87.00
60473;DHT22;46318;52.716;6.444;2023-06-22T05:04:28;18.50;86.90
60473;DHT22;46318;52.716;6.444;2023-06-22T05:06:59;18.60;86.90
60473;DHT22;46318;52.716;6.444;2023-06-22T05:09:26;18.60;86.80
60473;DHT22;46318;52.716;6.444;2023-06-22T05:11:52;18.50;86.90
60473;DHT22;46318;52.716;6.444;2023-06-22T05:14:18;18.60;86.80
60473;DHT22;46318;52.716;6.444;2023-06-22T05:16:45;18.60;86.80
60473;DHT22;46318;52.716;6.444;2023-06-22T05:19:12;18.60;86.70
60473;DHT22;46318;52.716;6.444;2023-06-22T05:21:38;18.60;86.70
60473;DHT22;46318;52.716;6.444;2023-06-22T05:24:04;18.70;86.50
60473;DHT22;46318;52.716;6.444;2023-06-22T05:26:32;18.70;86.50
60473;DHT22;46318;52.716;6.444;2023-06-22T05:28:59;18.80;86.30
60473;DHT22;46318;52.716;6.444;2023-06-22T05:31:29;18.80;86.30
60473;DHT22;46318;52.716;6.444;2023-06-22T05:33:55;18.80;86.20
60473;DHT22;46318;52.716;6.444;2023-06-22T05:36:23;18.80;86.20
60473;DHT22;46318;52.716;6.444;2023-06-22T05:38:52;18.90;86.10
60473;DHT22;46318;52.716;6.444;2023-06-22T05:41:19;18.90;86.00
60473;DHT22;46318;52.716;6.444;2023-06-22T05:43:45;19.00;85.90
60473;DHT22;46318;52.716;6.444;2023-06-22T05:46:10;19.00;85.60
60473;DHT22;46318;52.716;6.444;2023-06-22T05:48:36;19.10;85.50
60473;DHT22;46318;52.716;6.444;2023-06-22T05:51:02;19.20;85.30
60473;DHT22;46318;52.716;6.444;2023-06-22T05:53:28;19.20;85.10
60473;DHT22;46318;52.716;6.444;2023-06-22T05:55:54;19.30;84.80
60473;DHT22;46318;52.716;6.444;2023-06-22T05:58:20;19.30;84.50
60473;DHT22;46318;52.716;6.444;2023-06-22T06:00:46;19.40;84.40
60473;DHT22;46318;52.716;6.444;2023-06-22T06:03:12;19.40;84.30
60473;DHT22;46318;52.716;6.444;2023-06-22T06:05:42;19.50;84.00
60473;DHT22;46318;52.716;6.444;2023-06-22T06:08:09;19.60;83.80
60473;DHT22;46318;52.716;6.444;2023-06-22T06:10:36;19.60;83.50
60473;DHT22;46318;52.716;6.444;2023-06-22T06:13:02;19.70;83.30
60473;DHT22;46318;52.716;6.444;2023-06-22T06:15:30;19.70;82.90
60473;DHT22;46318;52.716;6.444;2023-06-22T06:17:58;19.70;82.70
60473;DHT22;46318;52.716;6.444;2023-06-22T06:20:25;19.80;82.50
60473;DHT22;46318;52.716;6.444;2023-06-22T06:22:53;19.90;82.20
60473;DHT22;46318;52.716;6.444;2023-06-22T06:25:19;19.90;82.10
60473;DHT22;46318;52.716;6.444;2023-06-22T06:27:47;20.00;81.70
60473;DHT22;46318;52.716;6.444;2023-06-22T06:30:16;20.10;81.60
60473;DHT22;46318;52.716;6.444;2023-06-22T06:32:43;20.10;81.00
60473;DHT22;46318;52.716;6.444;2023-06-22T06:35:12;20.20;80.80
60473;DHT22;46318;52.716;6.444;2023-06-22T06:37:41;20.20;80.70
60473;DHT22;46318;52.716;6.444;2023-06-22T06:40:10;20.30;80.60
60473;DHT22;46318;52.716;6.444;2023-06-22T06:42:45;20.40;80.00
60473;DHT22;46318;52.716;6.444;2023-06-22T06:45:14;20.50;80.10
60473;DHT22;46318;52.716;6.444;2023-06-22T06:47:42;20.60;79.80
60473;DHT22;46318;52.716;6.444;2023-06-22T06:50:08;20.60;79.40
60473;DHT22;46318;52.716;6.444;2023-06-22T06:52:37;20.70;79.30
60473;DHT22;46318;52.716;6.444;2023-06-22T06:55:04;20.70;79.30
60473;DHT22;46318;52.716;6.444;2023-06-22T06:57:34;20.80;79.10
60473;DHT22;46318;52.716;6.444;2023-06-22T07:00:06;20.90;79.00
60473;DHT22;46318;52.716;6.444;2023-06-22T07:02:38;21.00;78.40
60473;DHT22;46318;52.716;6.444;2023-06-22T07:05:08;21.00;78.20
60473;DHT22;46318;52.716;6.444;2023-06-22T07:07:38;21.10;77.80
60473;DHT22;46318;52.716;6.444;2023-06-22T07:10:05;21.10;77.60
60473;DHT22;46318;52.716;6.444;2023-06-22T07:12:32;21.20;77.20
60473;DHT22;46318;52.716;6.444;2023-06-22T07:15:03;21.30;76.70
60473;DHT22;46318;52.716;6.444;2023-06-22T07:17:30;21.40;75.70
60473;DHT22;46318;52.716;6.444;2023-06-22T07:19:56;21.40;75.40
60473;DHT22;46318;52.716;6.444;2023-06-22T07:22:23;21.50;74.70
60473;DHT22;46318;52.716;6.444;2023-06-22T07:24:49;21.50;74.20
60473;DHT22;46318;52.716;6.444;2023-06-22T07:27:15;21.60;73.80
60473;DHT22;46318;52.716;6.444;2023-06-22T07:29:44;21.60;73.50
60473;DHT22;46318;52.716;6.444;2023-06-22T07:32:10;21.70;73.50
60473;DHT22;46318;52.716;6.444;2023-06-22T07:34:36;21.70;73.20
60473;DHT22;46318;52.716;6.444;2023-06-22T07:37:03;21.80;73.10
60473;DHT22;46318;52.716;6.444;2023-06-22T07:39:30;21.80;73.00
60473;DHT22;46318;52.716;6.444;2023-06-22T07:41:56;21.90;72.90
60473;DHT22;46318;52.716;6.444;2023-06-22T07:44:22;22.00;72.50
60473;DHT22;46318;52.716;6.444;2023-06-22T07:46:49;22.10;72.30
60473;DHT22;46318;52.716;6.444;2023-06-22T07:49:16;22.10;72.30
60473;DHT22;46318;52.716;6.444;2023-06-22T07:51:42;22.20;72.10
60473;DHT22;46318;52.716;6.444;2023-06-22T07:54:09;22.20;71.50
60473;DHT22;46318;52.716;6.444;2023-06-22T07:56:36;22.30;71.50
60473;DHT22;46318;52.716;6.444;2023-06-22T07:59:02;22.40;71.20
60473;DHT22;46318;52.716;6.444;2023-06-22T08:01:29;22.40;71.00
60473;DHT22;46318;52.716;6.444;2023-06-22T08:03:58;22.50;70.90
60473;DHT22;46318;52.716;6.444;2023-06-22T08:06:25;22.60;70.60
60473;DHT22;46318;52.716;6.444;2023-06-22T08:08:51;22.70;70.20
60473;DHT22;46318;52.716;6.444;2023-06-22T08:11:22;22.80;69.80
60473;DHT22;46318;52.716;6.444;2023-06-22T08:13:49;22.80;69.60
60473;DHT22;46318;52.716;6.444;2023-06-22T08:16:15;22.90;70.00
60473;DHT22;46318;52.716;6.444;2023-06-22T08:18:41;23.00;69.50
60473;DHT22;46318;52.716;6.444;2023-06-22T08:21:07;23.10;69.10
60473;DHT22;46318;52.716;6.444;2023-06-22T08:23:36;23.10;68.60
60473;DHT22;46318;52.716;6.444;2023-06-22T08:26:02;23.20;68.70
60473;DHT22;46318;52.716;6.444;2023-06-22T08:28:28;23.30;68.40
60473;DHT22;46318;52.716;6.444;2023-06-22T08:30:54;23.40;67.80
60473;DHT22;46318;52.716;6.444;2023-06-22T08:33:21;23.50;67.30
60473;DHT22;46318;52.716;6.444;2023-06-22T08:35:54;23.50;67.10
60473;DHT22;46318;52.716;6.444;2023-06-22T08:38:21;23.60;67.30
60473;DHT22;46318;52.716;6.444;2023-06-22T08:40:46;23.70;67.10
60473;DHT22;46318;52.716;6.444;2023-06-22T08:43:13;23.70;66.50
60473;DHT22;46318;52.716;6.444;2023-06-22T08:45:39;23.80;66.10
60473;DHT22;46318;52.716;6.444;2023-06-22T08:48:05;23.80;66.00
60473;DHT22;46318;52.716;6.444;2023-06-22T08:50:31;23.80;65.90
60473;DHT22;46318;52.716;6.444;2023-06-22T08:52:57;23.90;65.40
60473;DHT22;46318;52.716;6.444;2023-06-22T08:55:23;23.90;65.30
60473;DHT22;46318;52.716;6.444;2023-06-22T08:57:49;24.00;65.00
60473;DHT22;46318;52.716;6.444;2023-06-22T09:00:15;24.00;64.80
60473;DHT22;46318;52.716;6.444;2023-06-22T09:02:46;24.00;65.00
60473;DHT22;46318;52.716;6.444;2023-06-22T09:05:12;24.00;64.80
60473;DHT22;46318;52.716;6.444;2023-06-22T09:07:39;24.10;64.50
60473;DHT22;46318;52.716;6.444;2023-06-22T09:10:05;24.10;64.30
60473;DHT22;46318;52.716;6.444;2023-06-22T09:12:32;24.20;64.60
60473;DHT22;46318;52.716;6.444;2023-06-22T09:14:59;24.30;64.60
60473;DHT22;46318;52.716;6.444;2023-06-22T09:17:26;24.30;63.70
60473;DHT22;46318;52.716;6.444;2023-06-22T09:19:53;24.40;63.70
60473;DHT22;46318;52.716;6.444;2023-06-22T09:22:19;24.50;63.80
60473;DHT22;46318;52.716;6.444;2023-06-22T09:24:45;24.50;63.50
60473;DHT22;46318;52.716;6.444;2023-06-22T09:27:11;24.60;63.10
60473;DHT22;46318;52.716;6.444;2023-06-22T09:29:37;24.70;63.00
60473;DHT22;46318;52.716;6.444;2023-06-22T09:32:03;24.80;63.10
60473;DHT22;46318;52.716;6.444;2023-06-22T09:34:30;24.90;62.90
60473;DHT22;46318;52.716;6.444;2023-06-22T09:36:57;24.90;62.50
60473;DHT22;46318;52.716;6.444;2023-06-22T09:39:25;24.90;62.60
60473;DHT22;46318;52.716;6.444;2023-06-22T09:41:51;24.90;62.60
60473;DHT22;46318;52.716;6.444;2023-06-22T09:44:18;25.00;62.20
60473;DHT22;46318;52.716;6.444;2023-06-22T09:46:44;25.00;61.70
60473;DHT22;46318;52.716;6.444;2023-06-22T09:49:10;25.10;61.80
60473;DHT22;46318;52.716;6.444;2023-06-22T09:51:36;25.10;61.70
60473;DHT22;46318;52.716;6.444;2023-06-22T09:54:02;25.20;61.10
60473;DHT22;46318;52.716;6.444;2023-06-22T09:56:28;25.20;61.10
60473;DHT22;46318;52.716;6.444;2023-06-22T09:58:55;25.20;61.20
60473;DHT22;46318;52.716;6.444;2023-06-22T10:01:21;25.20;60.80
60473;DHT22;46318;52.716;6.444;2023-06-22T10:03:55;25.30;60.50
60473;DHT22;46318;52.716;6.444;2023-06-22T10:06:22;25.30;60.20
60473;DHT22;46318;52.716;6.444;2023-06-22T10:08:49;25.30;60.10
60473;DHT22;46318;52.716;6.444;2023-06-22T10:11:15;25.30;60.10
60473;DHT22;46318;52.716;6.444;2023-06-22T10:13:41;25.40;60.20
60473;DHT22;46318;52.716;6.444;2023-06-22T10:16:07;25.50;59.80
60473;DHT22;46318;52.716;6.444;2023-06-22T10:18:33;25.50;59.00
60473;DHT22;46318;52.716;6.444;2023-06-22T10:20:59;25.50;58.90
60473;DHT22;46318;52.716;6.444;2023-06-22T10:23:26;25.60;59.00
60473;DHT22;46318;52.716;6.444;2023-06-22T10:25:52;25.60;58.70
60473;DHT22;46318;52.716;6.444;2023-06-22T10:28:17;25.80;58.80
60473;DHT22;46318;52.716;6.444;2023-06-22T10:30:43;25.90;59.00
60473;DHT22;46318;52.716;6.444;2023-06-22T10:33:11;26.00;58.40
60473;DHT22;46318;52.716;6.444;2023-06-22T10:35:38;26.00;58.30
60473;DHT22;46318;52.716;6.444;2023-06-22T10:38:04;26.00;57.70
60473;DHT22;46318;52.716;6.444;2023-06-22T10:40:31;26.00;57.50
60473;DHT22;46318;52.716;6.444;2023-06-22T10:42:57;26.10;57.70
60473;DHT22;46318;52.716;6.444;2023-06-22T10:45:23;26.00;57.90
60473;DHT22;46318;52.716;6.444;2023-06-22T10:47:49;26.00;56.90
60473;DHT22;46318;52.716;6.444;2023-06-22T10:50:15;26.00;56.70
60473;DHT22;46318;52.716;6.444;2023-06-22T10:52:41;26.00;57.00
60473;DHT22;46318;52.716;6.444;2023-06-22T10:55:08;26.00;57.00
60473;DHT22;46318;52.716;6.444;2023-06-22T10:57:35;26.00;57.20
60473;DHT22;46318;52.716;6.444;2023-06-22T11:00:02;26.00;57.50
60473;DHT22;46318;52.716;6.444;2023-06-22T11:02:31;26.00;57.50
60473;DHT22;46318;52.716;6.444;2023-06-22T11:04:57;26.10;57.10
60473;DHT22;46318;52.716;6.444;2023-06-22T11:07:26;26.00;57.10
60473;DHT22;46318;52.716;6.444;2023-06-22T11:09:54;26.10;57.30
60473;DHT22;46318;52.716;6.444;2023-06-22T11:12:20;26.10;56.40
60473;DHT22;46318;52.716;6.444;2023-06-22T11:14:46;26.10;56.00
60473;DHT22;46318;52.716;6.444;2023-06-22T11:17:12;26.00;55.50
60473;DHT22;46318;52.716;6.444;2023-06-22T11:19:41;26.00;55.80
60473;DHT22;46318;52.716;6.444;2023-06-22T11:22:07;26.00;55.70
60473;DHT22;46318;52.716;6.444;2023-06-22T11:24:32;26.00;56.20
60473;DHT22;46318;52.716;6.444;2023-06-22T11:26:58;26.00;56.90
60473;DHT22;46318;52.716;6.444;2023-06-22T11:29:24;25.90;57.20
60473;DHT22;46318;52.716;6.444;2023-06-22T11:31:50;25.90;56.20
60473;DHT22;46318;52.716;6.444;2023-06-22T11:34:16;25.90;55.90
60473;DHT22;46318;52.716;6.444;2023-06-22T11:36:42;25.90;55.80
60473;DHT22;46318;52.716;6.444;2023-06-22T11:39:09;25.90;55.50
60473;DHT22;46318;52.716;6.444;2023-06-22T11:41:35;25.90;55.30
60473;DHT22;46318;52.716;6.444;2023-06-22T11:44:01;25.90;54.50
60473;DHT22;46318;52.716;6.444;2023-06-22T11:46:29;25.90;54.20
60473;DHT22;46318;52.716;6.444;2023-06-22T11:48:55;25.90;54.50
60473;DHT22;46318;52.716;6.444;2023-06-22T11:51:21;25.90;54.70
60473;DHT22;46318;52.716;6.444;2023-06-22T11:53:47;25.90;54.90
60473;DHT22;46318;52.716;6.444;2023-06-22T11:56:13;25.90;55.50
60473;DHT22;46318;52.716;6.444;2023-06-22T11:58:39;25.90;55.40
60473;DHT22;46318;52.716;6.444;2023-06-22T12:01:05;25.90;55.00
60473;DHT22;46318;52.716;6.444;2023-06-22T12:03:37;26.00;55.10
60473;DHT22;46318;52.716;6.444;2023-06-22T12:06:03;26.00;55.00
60473;DHT22;46318;52.716;6.444;2023-06-22T12:08:29;26.00;55.40
60473;DHT22;46318;52.716;6.444;2023-06-22T12:10:54;26.00;55.10
60473;DHT22;46318;52.716;6.444;2023-06-22T12:13:21;26.10;54.90
60473;DHT22;46318;52.716;6.444;2023-06-22T12:15:47;26.10;55.30
60473;DHT22;46318;52.716;6.444;2023-06-22T12:18:13;26.10;55.20
60473;DHT22;46318;52.716;6.444;2023-06-22T12:20:42;26.00;54.70
60473;DHT22;46318;52.716;6.444;2023-06-22T12:23:08;26.00;54.80
60473;DHT22;46318;52.716;6.444;2023-06-22T12:25:34;26.00;54.70
60473;DHT22;46318;52.716;6.444;2023-06-22T12:28:00;26.00;54.90
60473;DHT22;46318;52.716;6.444;2023-06-22T12:30:26;25.90;55.00
60473;DHT22;46318;52.716;6.444;2023-06-22T12:32:51;25.90;55.50
60473;DHT22;46318;52.716;6.444;2023-06-22T12:35:17;25.90;56.00
60473;DHT22;46318;52.716;6.444;2023-06-22T12:37:45;25.90;56.60
60473;DHT22;46318;52.716;6.444;2023-06-22T12:40:11;26.00;56.90
60473;DHT22;46318;52.716;6.444;2023-06-22T12:42:37;26.00;57.10
60473;DHT22;46318;52.716;6.444;2023-06-22T12:45:03;26.00;57.00
60473;DHT22;46318;52.716;6.444;2023-06-22T12:47:30;26.00;57.00
60473;DHT22;46318;52.716;6.444;2023-06-22T12:49:56;26.00;57.00
60473;DHT22;46318;52.716;6.444;2023-06-22T12:52:22;25.90;57.00
60473;DHT22;46318;52.716;6.444;2023-06-22T12:54:48;25.90;57.00
60473;DHT22;46318;52.716;6.444;2023-06-22T12:57:14;25.90;57.10
60473;DHT22;46318;52.716;6.444;2023-06-22T12:59:40;25.90;56.90
60473;DHT22;46318;52.716;6.444;2023-06-22T13:02:06;25.90;56.80
60473;DHT22;46318;52.716;6.444;2023-06-22T13:04:32;25.80;56.90
60473;DHT22;46318;52.716;6.444;2023-06-22T13:06:58;25.80;57.10
60473;DHT22;46318;52.716;6.444;2023-06-22T13:09:23;25.70;57.30
60473;DHT22;46318;52.716;6.444;2023-06-22T13:11:49;25.80;57.40
60473;DHT22;46318;52.716;6.444;2023-06-22T13:14:18;25.80;57.50
60473;DHT22;46318;52.716;6.444;2023-06-22T13:16:44;25.70;57.20
60473;DHT22;46318;52.716;6.444;2023-06-22T13:19:10;25.70;57.30
60473;DHT22;46318;52.716;6.444;2023-06-22T13:21:36;25.70;57.40
60473;DHT22;46318;52.716;6.444;2023-06-22T13:24:02;25.70;57.30
60473;DHT22;46318;52.716;6.444;2023-06-22T13:26:29;25.70;56.50
60473;DHT22;46318;52.716;6.444;2023-06-22T13:28:54;25.70;56.50
60473;DHT22;46318;52.716;6.444;2023-06-22T13:31:20;25.70;56.70
60473;DHT22;46318;52.716;6.444;2023-06-22T13:33:47;25.60;56.90
60473;DHT22;46318;52.716;6.444;2023-06-22T13:36:14;25.60;56.90
60473;DHT22;46318;52.716;6.444;2023-06-22T13:38:40;25.60;56.90
60473;DHT22;46318;52.716;6.444;2023-06-22T13:41:06;25.60;57.00
60473;DHT22;46318;52.716;6.444;2023-06-22T13:43:32;25.60;57.30
60473;DHT22;46318;52.716;6.444;2023-06-22T13:45:58;25.60;57.50
60473;DHT22;46318;52.716;6.444;2023-06-22T13:48:24;25.60;57.50
60473;DHT22;46318;52.716;6.444;2023-06-22T13:50:52;25.60;57.70
60473;DHT22;46318;52.716;6.444;2023-06-22T13:53:18;25.50;57.80
60473;DHT22;46318;52.716;6.444;2023-06-22T13:55:44;25.50;57.90
60473;DHT22;46318;52.716;6.444;2023-06-22T13:58:10;25.40;57.90
60473;DHT22;46318;52.716;6.444;2023-06-22T14:00:36;25.40;57.90
60473;DHT22;46318;52.716;6.444;2023-06-22T14:03:02;25.40;58.00
60473;DHT22;46318;52.716;6.444;2023-06-22T14:05:28;25.40;57.80
60473;DHT22;46318;52.716;6.444;2023-06-22T14:07:54;25.40;57.80
60473;DHT22;46318;52.716;6.444;2023-06-22T14:10:20;25.40;58.00
60473;DHT22;46318;52.716;6.444;2023-06-22T14:12:46;25.40;57.90
60473;DHT22;46318;52.716;6.444;2023-06-22T14:15:12;25.30;58.00
60473;DHT22;46318;52.716;6.444;2023-06-22T14:17:38;25.30;58.30
60473;DHT22;46318;52.716;6.444;2023-06-22T14:20:05;25.30;58.50
60473;DHT22;46318;52.716;6.444;2023-06-22T14:22:33;25.30;59.00
60473;DHT22;46318;52.716;6.444;2023-06-22T14:25:01;25.30;59.10
60473;DHT22;46318;52.716;6.444;2023-06-22T14:27:27;25.20;59.70
60473;DHT22;46318;52.716;6.444;2023-06-22T14:29:53;25.20;60.30
60473;DHT22;46318;52.716;6.444;2023-06-22T14:32:19;25.20;60.80
60473;DHT22;46318;52.716;6.444;2023-06-22T14:34:44;25.10;61.20
60473;DHT22;46318;52.716;6.444;2023-06-22T14:37:11;25.00;61.80
60473;DHT22;46318;52.716;6.444;2023-06-22T14:39:38;25.00;63.20
60473;DHT22;46318;52.716;6.444;2023-06-22T14:42:08;24.90;63.70
60473;DHT22;46318;52.716;6.444;2023-06-22T14:44:34;24.90;65.10
60473;DHT22;46318;52.716;6.444;2023-06-22T14:47:00;24.80;65.70
60473;DHT22;46318;52.716;6.444;2023-06-22T14:49:26;24.70;66.70
60473;DHT22;46318;52.716;6.444;2023-06-22T14:51:52;24.70;67.50
60473;DHT22;46318;52.716;6.444;2023-06-22T14:54:18;24.60;68.50
60473;DHT22;46318;52.716;6.444;2023-06-22T14:56:44;24.50;68.90
60473;DHT22;46318;52.716;6.444;2023-06-22T14:59:10;24.40;69.70
60473;DHT22;46318;52.716;6.444;2023-06-22T15:01:36;24.30;70.60
60473;DHT22;46318;52.716;6.444;2023-06-22T15:04:02;24.20;70.80
60473;DHT22;46318;52.716;6.444;2023-06-22T15:06:28;24.10;71.60
60473;DHT22;46318;52.716;6.444;2023-06-22T15:08:55;24.10;72.10
60473;DHT22;46318;52.716;6.444;2023-06-22T15:11:22;24.00;72.30
60473;DHT22;46318;52.716;6.444;2023-06-22T15:13:48;23.90;72.70
60473;DHT22;46318;52.716;6.444;2023-06-22T15:16:14;23.90;73.40
60473;DHT22;46318;52.716;6.444;2023-06-22T15:18:42;23.80;73.70
60473;DHT22;46318;52.716;6.444;2023-06-22T15:21:08;23.70;73.80
60473;DHT22;46318;52.716;6.444;2023-06-22T15:23:34;23.70;74.00
60473;DHT22;46318;52.716;6.444;2023-06-22T15:26:02;23.60;74.60
60473;DHT22;46318;52.716;6.444;2023-06-22T15:28:30;23.60;75.20
60473;DHT22;46318;52.716;6.444;2023-06-22T15:30:57;23.50;75.60
60473;DHT22;46318;52.716;6.444;2023-06-22T15:33:26;23.50;75.90
60473;DHT22;46318;52.716;6.444;2023-06-22T15:35:52;23.40;76.10
60473;DHT22;46318;52.716;6.444;2023-06-22T15:38:21;23.40;76.30
60473;DHT22;46318;52.716;6.444;2023-06-22T15:40:47;23.40;76.70